Time;durP1;ratioP1;P1;durP2;ratioP2;P2;SDS_P1;SDS_P2;PMS_P1;PMS_P2;Temp;Humidity;BMP_temperature;BMP_pressure;BME280_temperature;BME280_humidity;BME280_pressure;Samples;Min_cycle;Max_cycle;Signal;HPM_P1;HPM_P2
2023/05/01 00:00:05;;;;;;;11.20;4.10;;;;;;;6.00;49.82;101390.73;111191;1206;97618;-65
2023/05/01 00:02:30;;;;;;;8.80;4.70;;;;;;;5.99;49.87;101389.69;111151;1209;111749;-67
2023/05/01 00:04:56;;;;;;;13.80;5.40;;;;;;;5.98;49.88;101392.89;110962;1219;138356;-67
2023/05/01 00:07:21;;;;;;;19.40;5.80;;;;;;;5.96;50.02;101388.65;111323;1206;97929;-67
2023/05/01 00:09:47;;;;;;;10.70;5.70;;;;;;;5.94;50.04;101387.09;111033;1212;137949;-67
2023/05/01 00:12:12;;;;;;;14.50;5.00;;;;;;;5.90;50.09;101388.91;111102;1211;97614;-65
2023/05/01 00:14:38;;;;;;;18.50;5.20;;;;;;;5.86;50.14;101384.84;111221;1208;97706;-67
2023/05/01 00:17:03;;;;;;;14.80;4.50;;;;;;;5.82;50.34;101385.95;111051;1212;138605;-67
2023/05/01 00:19:28;;;;;;;11.80;4.60;;;;;;;5.79;50.19;101386.88;111225;1211;97601;-67
2023/05/01 00:21:55;;;;;;;10.20;4.10;;;;;;;5.75;50.24;101382.85;111031;1209;137867;-67
2023/05/01 00:24:21;;;;;;;9.90;4.50;;;;;;;5.70;50.42;101377.94;111164;1214;97793;-68
2023/05/01 00:26:46;;;;;;;11.80;4.60;;;;;;;5.67;50.42;101376.74;111228;1219;97677;-67
2023/05/01 00:29:11;;;;;;;9.40;4.10;;;;;;;5.63;50.53;101377.31;111090;1212;138193;-67
2023/05/01 00:31:37;;;;;;;11.00;3.90;;;;;;;5.61;50.45;101371.66;111163;1206;98303;-67
2023/05/01 00:34:03;;;;;;;9.80;4.20;;;;;;;5.57;50.55;101369.40;111065;1206;138216;-67
2023/05/01 00:36:30;;;;;;;11.60;4.70;;;;;;;5.54;50.68;101371.02;111195;1212;97665;-67
2023/05/01 00:38:55;;;;;;;12.30;4.70;;;;;;;5.50;50.79;101368.23;111159;1212;97647;-68
2023/05/01 00:41:21;;;;;;;10.20;4.10;;;;;;;5.47;50.93;101368.63;111115;1212;138414;-67
2023/05/01 00:43:46;;;;;;;11.20;5.10;;;;;;;5.44;50.95;101370.43;111133;1212;97647;-68
2023/05/01 00:46:11;;;;;;;14.90;5.10;;;;;;;5.42;51.01;101366.56;111045;1208;139717;-67
2023/05/01 00:48:36;;;;;;;14.00;4.80;;;;;;;5.39;50.95;101363.57;111220;1211;97653;-67
2023/05/01 00:51:06;;;;;;;9.40;4.20;;;;;;;5.38;51.13;101365.36;111128;1212;97671;-67
2023/05/01 00:53:35;;;;;;;13.00;5.20;;;;;;;5.36;51.20;101369.99;111088;1219;139554;-67
2023/05/01 00:56:00;;;;;;;8.30;4.20;;;;;;;5.33;51.30;101366.48;111221;1219;97689;-65
2023/05/01 00:58:26;;;;;;;13.00;5.20;;;;;;;5.31;51.35;101363.31;111047;1212;137577;-65
2023/05/01 01:00:51;;;;;;;11.50;5.10;;;;;;;5.28;51.60;101356.08;111276;1222;97645;-65
2023/05/01 01:03:17;;;;;;;15.50;5.20;;;;;;;5.25;51.49;101357.87;111110;1212;97591;-66
2023/05/01 01:06:06;;;;;;;13.80;4.60;;;;;;;5.22;51.64;101356.85;111059;1212;137475;-65
2023/05/01 01:08:38;;;;;;;12.50;4.60;;;;;;;5.18;51.66;101358.52;111140;1212;112737;-65
2023/05/01 01:11:22;;;;;;;10.10;4.90;;;;;;;5.14;52.08;101356.42;111018;1210;139098;-66
2023/05/01 01:14:02;;;;;;;13.70;5.20;;;;;;;5.11;51.86;101353.79;111106;1213;108134;-66
2023/05/01 01:16:42;;;;;;;13.80;4.90;;;;;;;5.08;52.06;101353.99;111044;1212;139982;-66
2023/05/01 01:19:26;;;;;;;12.00;4.70;;;;;;;5.05;52.21;101355.98;111226;1212;97571;-66
2023/05/01 01:21:57;;;;;;;14.80;5.50;;;;;;;5.00;52.25;101350.70;111093;1212;138359;-66
2023/05/01 01:24:22;;;;;;;;;;;;;;;4.97;52.20;101349.33;111253;1210;99615;-66
2023/05/01 01:27:02;;;;;;;12.20;4.60;;;;;;;4.94;52.24;101350.41;111175;1206;97652;-66
2023/05/01 01:29:46;;;;;;;11.00;4.50;;;;;;;4.93;52.37;101344.95;111111;1212;139203;-66
2023/05/01 01:32:42;;;;;;;14.70;5.30;;;;;;;4.91;52.43;101343.00;111158;1212;97698;-66
2023/05/01 01:35:18;;;;;;;15.30;4.90;;;;;;;4.88;52.41;101339.48;111172;1211;137677;-66
2023/05/01 01:38:03;;;;;;;11.50;5.30;;;;;;;4.87;52.58;101335.42;111292;1212;99992;-66
2023/05/01 01:40:35;;;;;;;10.60;5.00;;;;;;;4.87;52.56;101331.35;111132;1220;138810;-66
2023/05/01 01:43:12;;;;;;;9.70;5.40;;;;;;;4.83;52.78;101333.33;111129;1219;96606;-66
2023/05/01 01:45:45;;;;;;;13.40;4.80;;;;;;;4.80;52.67;101333.18;111052;1211;140202;-65
2023/05/01 01:48:13;;;;;;;14.50;5.70;;;;;;;4.78;52.80;101336.39;111284;1206;111242;-66
2023/05/01 01:50:40;;;;;;;12.80;5.60;;;;;;;4.78;53.02;101339.92;111196;1212;99875;-66
2023/05/01 01:53:10;;;;;;;11.40;5.00;;;;;;;4.77;53.09;101337.29;111106;1211;139674;-66
2023/05/01 01:55:38;;;;;;;14.70;6.20;;;;;;;4.76;53.14;101334.28;111237;1206;98995;-66
2023/05/01 01:58:05;;;;;;;13.50;5.80;;;;;;;4.76;53.25;101334.28;111051;1212;138417;-65
2023/05/01 02:00:34;;;;;;;13.90;5.50;;;;;;;4.74;53.38;101327.04;111209;1210;97587;-65
2023/05/01 02:03:01;;;;;;;18.30;5.60;;;;;;;4.73;53.44;101332.00;111168;1212;99973;-65
2023/05/01 02:05:27;;;;;;;16.20;5.60;;;;;;;4.72;53.40;101328.12;111054;1207;138552;-66
2023/05/01 02:07:54;;;;;;;14.20;5.80;;;;;;;4.69;53.69;101326.73;111350;1210;97690;-66
2023/05/01 02:10:21;;;;;;;19.00;6.20;;;;;;;4.68;53.79;101324.44;111177;1212;139056;-65
2023/05/01 02:12:50;;;;;;;12.90;5.70;;;;;;;4.67;53.83;101324.80;111233;1207;97707;-65
2023/05/01 02:15:17;;;;;;;20.80;5.90;;;;;;;4.65;53.85;101324.81;111186;1212;96959;-66
2023/05/01 02:17:44;;;;;;;10.40;5.40;;;;;;;4.63;53.87;101321.64;111080;1207;139010;-67
2023/05/01 02:20:11;;;;;;;13.60;5.50;;;;;;;4.63;53.94;101321.83;111291;1211;97732;-66
2023/05/01 02:22:42;;;;;;;17.10;5.70;;;;;;;4.62;54.03;101318.11;111194;1211;138224;-65
2023/05/01 02:25:10;;;;;;;18.80;5.30;;;;;;;4.61;54.26;101317.41;111293;1206;110078;-66
2023/05/01 02:27:42;;;;;;;14.50;5.20;;;;;;;4.60;54.07;101315.48;111050;1210;138663;-65
2023/05/01 02:30:08;;;;;;;11.10;5.30;;;;;;;4.57;54.37;101313.91;111081;1212;108175;-66
2023/05/01 02:32:34;;;;;;;19.90;5.90;;;;;;;4.53;54.52;101315.70;111334;1212;97613;-66
2023/05/01 02:35:00;;;;;;;14.80;5.00;;;;;;;4.52;54.54;101314.83;111252;1209;137597;-66
2023/05/01 02:37:26;;;;;;;10.40;4.90;;;;;;;4.48;54.64;101310.79;111225;1206;99953;-66
2023/05/01 02:39:52;;;;;;;14.80;5.30;;;;;;;4.47;54.45;101310.63;111051;1211;139631;-66
2023/05/01 02:42:20;;;;;;;12.00;5.50;;;;;;;4.45;54.61;101310.82;111129;1210;97725;-66
2023/05/01 02:44:52;;;;;;;14.70;5.10;;;;;;;4.42;54.57;101307.48;111152;1207;96444;-66
2023/05/01 02:47:20;;;;;;;12.70;5.60;;;;;;;4.40;54.79;101306.97;111008;1206;138179;-66
2023/05/01 02:49:48;;;;;;;13.00;5.40;;;;;;;4.37;54.90;101302.04;111163;1210;100131;-66
2023/05/01 02:52:19;;;;;;;10.90;5.70;;;;;;;4.34;54.82;101299.05;111078;1206;139592;-66
2023/05/01 02:54:45;;;;;;;13.50;6.30;;;;;;;4.29;54.99;101299.79;111182;1212;97697;-66
2023/05/01 02:57:11;;;;;;;13.40;5.70;;;;;;;4.25;55.12;101302.12;111192;1211;97583;-65
2023/05/01 02:59:37;;;;;;;18.30;6.80;;;;;;;4.22;55.13;101296.30;111054;1211;137927;-66
2023/05/01 03:02:03;;;;;;;15.50;6.30;;;;;;;4.20;55.28;101295.60;111127;1218;97597;-66
2023/05/01 03:04:28;;;;;;;11.60;5.20;;;;;;;4.18;55.41;101296.14;111067;1211;138423;-66
2023/05/01 03:06:54;;;;;;;15.30;6.70;;;;;;;4.17;55.48;101291.91;111165;1212;97326;-66
2023/05/01 03:09:20;;;;;;;16.30;6.30;;;;;;;4.16;55.52;101290.50;111254;1210;97644;-66
2023/05/01 03:11:46;;;;;;;13.10;5.80;;;;;;;4.16;55.64;101291.03;111184;1212;107392;-65
2023/05/01 03:14:11;;;;;;;13.60;5.30;;;;;;;4.14;55.64;101287.67;111213;1206;97610;-66
2023/05/01 03:16:37;;;;;;;15.40;6.80;;;;;;;4.14;55.54;101281.67;111118;1212;138363;-66
2023/05/01 03:19:02;;;;;;;16.60;6.10;;;;;;;4.15;55.80;101284.67;111167;1212;97696;-66
2023/05/01 03:21:27;;;;;;;16.00;6.80;;;;;;;4.15;56.00;101281.84;111143;1206;140806;-65
2023/05/01 03:23:53;;;;;;;18.60;7.70;;;;;;;4.14;55.84;101277.25;111131;1212;97810;-66
2023/05/01 03:26:18;;;;;;;21.40;7.10;;;;;;;4.15;55.91;101274.95;111213;1212;97627;-65
2023/05/01 03:28:43;;;;;;;18.80;6.00;;;;;;;4.14;56.17;101271.77;111129;1211;139758;-67
2023/05/01 03:31:09;;;;;;;21.40;7.70;;;;;;;4.14;56.29;101271.60;111130;1212;97731;-65
2023/05/01 03:33:34;;;;;;;13.90;6.20;;;;;;;4.14;56.36;101271.06;111105;1212;138897;-65
2023/05/01 03:36:02;;;;;;;16.40;6.50;;;;;;;4.15;56.20;101271.94;111174;1212;97700;-65
2023/05/01 03:38:30;;;;;;;12.10;6.50;;;;;;;4.15;56.34;101269.98;111277;1206;107506;-65
2023/05/01 03:40:57;;;;;;;23.80;8.10;;;;;;;4.15;56.37;101266.45;111185;1212;140751;-65
2023/05/01 03:43:24;;;;;;;15.20;5.70;;;;;;;4.16;56.36;101265.74;111250;1209;97611;-65
2023/05/01 03:45:50;;;;;;;15.50;5.90;;;;;;;4.17;56.50;101259.20;111084;1206;138118;-67
2023/05/01 03:48:17;;;;;;;12.70;5.80;;;;;;;4.18;56.54;101256.17;111270;1212;99038;-68
2023/05/01 03:50:42;;;;;;;13.70;5.40;;;;;;;4.18;56.66;101259.54;111263;1212;97565;-68
2023/05/01 03:53:07;;;;;;;16.30;6.70;;;;;;;4.18;56.75;101257.94;111075;1206;138435;-68
2023/05/01 03:55:32;;;;;;;17.80;7.10;;;;;;;4.19;56.83;101259.00;111273;1212;97735;-68
2023/05/01 03:57:58;;;;;;;15.70;6.20;;;;;;;4.17;56.94;101263.79;111044;1210;138897;-65
2023/05/01 04:00:23;;;;;;;14.50;6.20;;;;;;;4.16;56.80;101263.08;111277;1218;98831;-65
2023/05/01 04:02:48;;;;;;;14.00;6.70;;;;;;;4.17;57.02;101261.31;111192;1212;97694;-65
2023/05/01 04:05:14;;;;;;;16.60;6.30;;;;;;;4.17;57.11;101262.73;111080;1212;139106;-67
2023/05/01 04:07:39;;;;;;;14.00;6.00;;;;;;;4.15;57.11;101266.27;111212;1206;97395;-67
2023/05/01 04:10:07;;;;;;;14.80;6.50;;;;;;;4.16;57.08;101267.86;111068;1212;139065;-67
2023/05/01 04:12:32;;;;;;;19.60;7.10;;;;;;;4.17;57.20;101266.80;111242;1206;97748;-68
2023/05/01 04:14:57;;;;;;;12.70;6.50;;;;;;;4.19;57.41;101265.89;111235;1206;97703;-68
2023/05/01 04:17:22;;;;;;;17.10;6.60;;;;;;;4.22;57.26;101263.91;111052;1211;139950;-68
2023/05/01 04:19:48;;;;;;;20.20;7.30;;;;;;;4.26;57.35;101264.43;111226;1212;97636;-67
2023/05/01 04:22:13;;;;;;;15.90;6.60;;;;;;;4.28;57.44;101264.23;111049;1206;139093;-68
2023/05/01 04:24:38;;;;;;;17.80;7.00;;;;;;;4.31;57.49;101262.62;111134;1210;97799;-65
2023/05/01 04:27:04;;;;;;;22.40;6.00;;;;;;;4.34;57.41;101263.66;111266;1212;97619;-67
2023/05/01 04:29:30;;;;;;;15.50;7.00;;;;;;;4.35;57.33;101262.95;111020;1206;138379;-67
2023/05/01 04:31:55;;;;;;;17.70;6.40;;;;;;;4.38;57.44;101261.51;111156;1209;97623;-67
2023/05/01 04:34:21;;;;;;;13.60;6.10;;;;;;;4.42;57.67;101258.99;111152;1212;139715;-67
2023/05/01 04:36:46;;;;;;;22.00;8.10;;;;;;;4.47;57.68;101262.14;111175;1206;97593;-67
2023/05/01 04:39:11;;;;;;;19.80;8.90;;;;;;;4.50;57.77;101259.64;111251;1212;98461;-67
2023/05/01 04:41:36;;;;;;;19.80;7.00;;;;;;;4.53;57.86;101258.89;111047;1212;138967;-67
2023/05/01 04:44:04;;;;;;;19.30;7.50;;;;;;;4.57;57.91;101256.92;111124;1206;97576;-68
2023/05/01 04:46:29;;;;;;;17.50;6.90;;;;;;;4.61;57.98;101256.70;111277;1206;140318;-67
2023/05/01 04:48:54;;;;;;;18.40;5.80;;;;;;;4.66;57.96;101261.44;111177;1212;100030;-67
2023/05/01 04:51:20;;;;;;;13.80;5.30;;;;;;;4.71;58.10;101260.50;111155;1206;97671;-67
2023/05/01 04:53:45;;;;;;;14.70;5.60;;;;;;;4.77;57.90;101262.56;111132;1212;139474;-67
2023/05/01 04:56:11;;;;;;;15.30;5.90;;;;;;;4.82;58.13;101266.77;111177;1206;98131;-67
2023/05/01 04:58:36;;;;;;;12.10;6.30;;;;;;;4.87;58.20;101268.84;111123;1206;138360;-67
2023/05/01 05:01:01;;;;;;;13.30;6.20;;;;;;;4.93;58.18;101267.90;111102;1206;97587;-66
2023/05/01 05:03:26;;;;;;;16.30;6.20;;;;;;;4.99;58.34;101268.02;111126;1206;140074;-65
2023/05/01 05:05:52;;;;;;;17.20;6.40;;;;;;;5.06;58.09;101266.34;111282;1206;97546;-66
2023/05/01 05:08:17;;;;;;;17.30;7.30;;;;;;;5.13;58.32;101264.32;111179;1206;97310;-66
2023/05/01 05:10:42;;;;;;;15.60;6.50;;;;;;;5.19;58.26;101259.10;111162;1212;138252;-66
2023/05/01 05:13:09;;;;;;;15.80;6.30;;;;;;;5.26;58.13;101263.61;111209;1212;97296;-67
2023/05/01 05:15:35;;;;;;;16.60;5.70;;;;;;;5.31;58.32;101260.52;111098;1211;138783;-66
2023/05/01 05:18:00;;;;;;;16.70;6.60;;;;;;;5.38;58.47;101261.33;111265;1212;97524;-66
2023/05/01 05:20:25;;;;;;;15.30;5.80;;;;;;;5.43;58.31;101263.75;111223;1211;97688;-67
2023/05/01 05:22:51;;;;;;;19.10;5.50;;;;;;;5.47;58.29;101262.45;111066;1206;138194;-67
2023/05/01 05:25:18;;;;;;;42.80;7.20;;;;;;;5.53;58.40;101265.39;111294;1211;97581;-66
2023/05/01 05:27:43;;;;;;;14.40;5.70;;;;;;;5.60;58.43;101261.41;111103;1212;138725;-67
2023/05/01 05:30:09;;;;;;;16.70;7.00;;;;;;;5.66;58.37;101259.02;111195;1206;97612;-67
2023/05/01 05:32:34;;;;;;;20.80;6.60;;;;;;;5.73;58.50;101258.76;111313;1212;97713;-67
2023/05/01 05:35:00;;;;;;;16.60;6.50;;;;;;;5.79;58.61;101254.58;111083;1206;140439;-67
2023/05/01 05:37:25;;;;;;;22.10;7.00;;;;;;;5.88;58.60;101250.22;111297;1218;96509;-67
2023/05/01 05:39:51;;;;;;;17.30;5.90;;;;;;;5.98;58.58;101249.73;111104;1212;140308;-67
2023/05/01 05:42:16;;;;;;;17.30;6.60;;;;;;;6.06;58.59;101244.29;111195;1212;97598;-67
2023/05/01 05:44:42;;;;;;;20.30;6.40;;;;;;;6.16;58.69;101243.95;111221;1212;97530;-67
2023/05/01 05:47:07;;;;;;;17.30;6.70;;;;;;;6.25;58.47;101242.94;111090;1212;138641;-67
2023/05/01 05:49:32;;;;;;;17.00;6.50;;;;;;;6.32;58.58;101239.62;111172;1212;96921;-67
2023/05/01 05:51:57;;;;;;;24.10;7.30;;;;;;;6.40;58.59;101241.43;111113;1212;140624;-67
2023/05/01 05:54:23;;;;;;;15.30;6.40;;;;;;;6.49;58.65;101241.30;111197;1212;97700;-67
2023/05/01 05:56:48;;;;;;;22.50;6.30;;;;;;;6.58;58.70;101243.63;111253;1218;98253;-67
2023/05/01 05:59:13;;;;;;;15.10;5.80;;;;;;;6.67;58.76;101239.55;111118;1212;139809;-67
2023/05/01 06:01:39;;;;;;;18.60;6.50;;;;;;;6.75;58.73;101241.89;111264;1211;97591;-67
2023/05/01 06:04:05;;;;;;;17.80;5.90;;;;;;;6.83;58.71;101242.63;111096;1212;139972;-67
2023/05/01 06:06:32;;;;;;;16.00;5.90;;;;;;;6.93;58.71;101240.86;111210;1212;97767;-67
2023/05/01 06:08:57;;;;;;;13.10;5.70;;;;;;;7.02;58.70;101239.27;111292;1209;98100;-67
2023/05/01 06:11:23;;;;;;;18.50;6.10;;;;;;;7.08;58.79;101235.94;111109;1212;138901;-67
2023/05/01 06:13:48;;;;;;;11.00;5.70;;;;;;;7.17;58.74;101234.88;111163;1211;97774;-67
2023/05/01 06:16:14;;;;;;;24.70;6.80;;;;;;;7.26;58.72;101234.16;111082;1206;138824;-67
2023/05/01 06:18:40;;;;;;;19.30;6.80;;;;;;;7.35;58.64;101237.34;111264;1206;97648;-66
2023/05/01 06:21:05;;;;;;;16.60;6.80;;;;;;;7.45;58.77;101231.45;111200;1207;97591;-66
2023/05/01 06:23:32;;;;;;;19.10;6.90;;;;;;;7.57;58.73;101230.50;111114;1205;138393;-66
2023/05/01 06:25:58;;;;;;;18.20;6.00;;;;;;;7.65;58.79;101226.77;111275;1209;97303;-66
2023/05/01 06:28:23;;;;;;;12.30;5.00;;;;;;;7.72;58.74;101226.59;111105;1212;137680;-66
2023/05/01 06:30:48;;;;;;;16.00;6.10;;;;;;;7.80;58.71;101224.79;111186;1211;97700;-66
2023/05/01 06:33:14;;;;;;;17.00;6.60;;;;;;;7.88;58.61;101223.17;111289;1212;96489;-66
2023/05/01 06:35:40;;;;;;;14.50;6.30;;;;;;;7.94;58.70;101225.35;111121;1211;139387;-66
2023/05/01 06:38:05;;;;;;;13.40;5.80;;;;;;;8.02;58.61;101222.48;111289;1211;97766;-66
2023/05/01 06:40:33;;;;;;;16.60;6.00;;;;;;;8.13;58.57;101219.90;111151;1218;139217;-67
2023/05/01 06:42:59;;;;;;;14.00;5.80;;;;;;;8.24;58.45;101217.70;111227;1211;111557;-67
2023/05/01 06:45:24;;;;;;;13.30;6.00;;;;;;;8.32;58.50;101214.83;111135;1212;139896;-66
2023/05/01 06:47:49;;;;;;;17.00;6.50;;;;;;;8.41;58.37;101215.67;111289;1206;97755;-67
2023/05/01 06:50:14;;;;;;;15.60;5.70;;;;;;;8.51;58.37;101215.79;111213;1206;97865;-67
2023/05/01 06:52:40;;;;;;;12.60;5.80;;;;;;;8.61;58.34;101215.52;111197;1215;138687;-67
2023/05/01 06:55:06;;;;;;;13.90;5.30;;;;;;;8.71;58.21;101212.77;111151;1206;108073;-66
2023/05/01 06:57:31;;;;;;;12.60;5.00;;;;;;;8.81;58.16;101209.46;111133;1206;138963;-66
2023/05/01 06:59:57;;;;;;;14.10;5.40;;;;;;;8.92;58.04;101206.67;111258;1212;97721;-66
2023/05/01 07:02:22;;;;;;;14.80;5.50;;;;;;;9.01;57.85;101202.67;111219;1212;97480;-66
2023/05/01 07:04:47;;;;;;;11.90;4.80;;;;;;;9.09;57.90;101198.35;111098;1206;137786;-66
2023/05/01 07:07:12;;;;;;;10.30;4.60;;;;;;;9.18;57.84;101196.48;111238;1212;97722;-66
2023/05/01 07:09:39;;;;;;;11.70;4.10;;;;;;;9.30;57.68;101201.14;111114;1212;138685;-66
2023/05/01 07:12:06;;;;;;;9.40;4.80;;;;;;;9.42;57.64;101197.38;111239;1212;99065;-67
2023/05/01 07:14:33;;;;;;;8.90;4.10;;;;;;;9.52;57.34;101195.30;111178;1206;97718;-67
2023/05/01 07:16:59;;;;;;;9.10;4.00;;;;;;;9.63;57.39;101191.92;111073;1206;137993;-67
2023/05/01 07:19:25;;;;;;;11.20;4.30;;;;;;;9.71;57.17;101193.11;111184;1212;97603;-67
2023/05/01 07:21:50;;;;;;;13.00;5.10;;;;;;;9.78;56.98;101193.42;111128;1212;138115;-66
2023/05/01 07:24:15;;;;;;;11.80;4.70;;;;;;;9.89;56.86;101190.23;111144;1211;97713;-66
2023/05/01 07:26:41;;;;;;;7.60;3.90;;;;;;;9.98;56.76;101186.72;111259;1212;97630;-67
2023/05/01 07:29:06;;;;;;;11.80;4.70;;;;;;;10.06;56.49;101184.50;111004;1212;137793;-67
2023/05/01 07:31:31;;;;;;;11.50;4.60;;;;;;;10.14;56.42;101186.58;111141;1212;97689;-67
2023/05/01 07:33:56;;;;;;;12.00;4.70;;;;;;;10.22;56.28;101189.70;111037;1207;138126;-66
2023/05/01 07:36:22;;;;;;;9.40;4.70;;;;;;;10.29;56.00;101186.27;111177;1218;98284;-67
2023/05/01 07:38:48;;;;;;;7.00;3.80;;;;;;;10.35;55.93;101183.71;111248;1212;97694;-67
2023/05/01 07:41:13;;;;;;;15.30;4.60;;;;;;;10.42;55.85;101182.77;111062;1212;139222;-67
2023/05/01 07:43:38;;;;;;;10.40;4.20;;;;;;;10.48;55.69;101182.02;111188;1211;97945;-67
2023/05/01 07:46:04;;;;;;;12.00;4.90;;;;;;;10.55;55.68;101177.29;111111;1212;138754;-67
2023/05/01 07:48:30;;;;;;;13.10;4.70;;;;;;;10.63;55.48;101176.30;111188;1209;97687;-67
2023/05/01 07:50:56;;;;;;;12.50;5.00;;;;;;;10.71;55.58;101174.58;111141;1212;97558;-66
2023/05/01 07:53:22;;;;;;;13.90;5.00;;;;;;;10.81;55.32;101176.20;111205;1206;139462;-67
2023/05/01 07:55:48;;;;;;;11.80;4.00;;;;;;;10.88;55.31;101175.05;111154;1205;97710;-67
2023/05/01 07:58:14;;;;;;;9.60;4.60;;;;;;;10.95;55.10;101171.76;111214;1209;138595;-67
2023/05/01 08:00:39;;;;;;;16.00;4.80;;;;;;;10.99;55.00;101163.91;111214;1212;97594;-67
2023/05/01 08:03:05;;;;;;;13.10;4.70;;;;;;;11.04;54.93;101157.47;111241;1206;97763;-67
2023/05/01 08:05:30;;;;;;;13.50;5.10;;;;;;;11.12;54.72;101152.16;111049;1211;139143;-67
2023/05/01 08:07:56;;;;;;;10.90;4.30;;;;;;;11.22;54.74;101152.33;111135;1211;97658;-67
2023/05/01 08:10:21;;;;;;;10.10;3.90;;;;;;;11.31;54.55;101155.38;111036;1206;138653;-67
2023/05/01 08:12:46;;;;;;;14.80;5.10;;;;;;;11.41;54.41;101150.33;111175;1212;97608;-66
2023/05/01 08:15:11;;;;;;;10.90;4.10;;;;;;;11.50;54.22;101147.32;111204;1211;99159;-66
2023/05/01 08:17:37;;;;;;;8.20;3.40;;;;;;;11.59;54.03;101146.05;111034;1222;138189;-66
2023/05/01 08:20:03;;;;;;;7.30;3.70;;;;;;;11.68;53.90;101141.05;111229;1206;99575;-66
2023/05/01 08:22:28;;;;;;;14.40;4.10;;;;;;;11.75;53.80;101140.41;111198;1206;138877;-67
2023/05/01 08:24:54;;;;;;;11.10;3.80;;;;;;;11.82;53.71;101137.98;111184;1206;98964;-67
2023/05/01 08:27:20;;;;;;;9.10;3.70;;;;;;;11.92;53.47;101137.80;111268;1210;97826;-67
2023/05/01 08:29:45;;;;;;;12.90;4.10;;;;;;;12.00;53.27;101140.29;111047;1206;139672;-67
2023/05/01 08:32:11;;;;;;;8.80;3.40;;;;;;;12.06;53.18;101137.89;111211;1211;99071;-67
2023/05/01 08:34:36;;;;;;;13.10;3.90;;;;;;;12.14;53.11;101136.30;111053;1211;138274;-67
2023/05/01 08:37:01;;;;;;;15.10;3.60;;;;;;;12.26;53.00;101138.14;111179;1211;101914;-67
2023/05/01 08:39:28;;;;;;;10.30;2.70;;;;;;;12.35;52.54;101134.19;111283;1211;99872;-67
2023/05/01 08:41:54;;;;;;;8.40;3.60;;;;;;;12.41;52.12;101136.61;111045;1211;140167;-67
2023/05/01 08:44:22;;;;;;;7.60;3.40;;;;;;;12.49;52.26;101132.50;111207;1209;99060;-67
2023/05/01 08:47:11;;;;;;;8.10;2.90;;;;;;;12.63;52.01;101126.32;111098;1212;138596;-67
2023/05/01 08:49:40;;;;;;;7.70;3.30;;;;;;;12.75;51.68;101123.98;111203;1212;112301;-67
2023/05/01 08:52:06;;;;;;;8.10;3.40;;;;;;;12.83;51.59;101124.90;111078;1212;138351;-67
2023/05/01 08:54:33;;;;;;;9.00;3.10;;;;;;;12.89;51.34;101121.56;111177;1211;98930;-67
2023/05/01 08:57:03;;;;;;;12.20;3.80;;;;;;;12.92;51.12;101119.45;111156;1212;99261;-65
2023/05/01 08:59:30;;;;;;;11.20;3.20;;;;;;;12.91;50.81;101116.09;111159;1211;138467;-66
2023/05/01 09:01:59;;;;;;;7.50;3.80;;;;;;;12.93;50.74;101110.44;111173;1206;99142;-66
2023/05/01 09:04:30;;;;;;;12.50;4.10;;;;;;;13.01;50.72;101106.83;111128;1211;139306;-66
2023/05/01 09:07:00;;;;;;;10.20;3.50;;;;;;;13.09;50.44;101110.00;111282;1211;107409;-66
2023/05/01 09:09:26;;;;;;;7.90;3.30;;;;;;;13.14;50.24;101105.48;111209;1211;99157;-66
2023/05/01 09:11:55;;;;;;;10.30;3.40;;;;;;;13.18;50.09;101100.66;111102;1210;137698;-65
2023/05/01 09:14:21;;;;;;;10.00;3.00;;;;;;;13.25;49.93;101099.05;111182;1211;113821;-66
2023/05/01 09:16:47;;;;;;;7.50;2.80;;;;;;;13.34;49.78;101095.05;111058;1211;138893;-66
2023/05/01 09:19:14;;;;;;;12.50;2.80;;;;;;;13.42;49.71;101092.33;111202;1210;98872;-66
2023/05/01 09:21:40;;;;;;;11.10;3.10;;;;;;;13.49;49.50;101094.14;111068;1211;139929;-65
2023/05/01 09:24:07;;;;;;;10.20;3.70;;;;;;;13.57;49.10;101096.65;111292;1211;99778;-66
2023/05/01 09:26:35;;;;;;;8.20;3.00;;;;;;;13.58;48.95;101094.07;111210;1211;98954;-65
2023/05/01 09:29:01;;;;;;;6.80;2.90;;;;;;;13.60;48.68;101085.36;111057;1211;140297;-66
2023/05/01 09:31:29;;;;;;;8.10;3.00;;;;;;;13.59;48.47;101080.73;111217;1211;99066;-66
2023/05/01 09:33:58;;;;;;;7.00;3.00;;;;;;;13.61;48.43;101076.86;111057;1211;140361;-66
2023/05/01 09:36:25;;;;;;;6.90;3.00;;;;;;;13.68;48.43;101076.02;111177;1211;112936;-66
2023/05/01 09:38:51;;;;;;;8.40;3.20;;;;;;;13.75;48.15;101080.49;111198;1210;99041;-66
2023/05/01 09:41:19;;;;;;;8.70;3.00;;;;;;;13.91;47.97;101078.97;111090;1207;140137;-66
2023/05/01 09:43:55;;;;;;;9.30;3.00;;;;;;;14.04;47.79;101077.58;111244;1207;98941;-66
2023/05/01 09:46:22;;;;;;;7.50;2.90;;;;;;;14.09;47.67;101073.73;111062;1206;139822;-66
2023/05/01 09:48:54;;;;;;;9.10;3.00;;;;;;;14.14;47.11;101068.09;111218;1210;99104;-66
2023/05/01 09:51:25;;;;;;;8.40;3.30;;;;;;;14.17;47.26;101066.30;111231;1205;100092;-66
2023/05/01 09:53:51;;;;;;;4.60;3.00;;;;;;;14.24;47.03;101059.99;111146;1210;138821;-66
2023/05/01 09:56:18;;;;;;;8.50;2.90;;;;;;;14.31;46.98;101055.68;111196;1206;98951;-65
2023/05/01 09:58:43;;;;;;;6.20;3.00;;;;;;;14.38;46.82;101055.53;111123;1222;140039;-66
2023/05/01 10:01:09;;;;;;;6.40;3.30;;;;;;;14.44;46.53;101057.55;111298;1209;98927;-66
2023/05/01 10:03:34;;;;;;;11.70;3.50;;;;;;;14.51;46.43;101058.96;111111;1211;139247;-65
2023/05/01 10:06:01;;;;;;;8.10;3.00;;;;;;;14.54;46.20;101055.92;111345;1211;99046;-66
2023/05/01 10:08:44;;;;;;;8.50;3.60;;;;;;;14.64;46.32;101056.66;111235;1210;112688;-66
2023/05/01 10:11:10;;;;;;;8.20;3.00;;;;;;;14.77;45.98;101051.52;111111;1211;139068;-66
2023/05/01 10:13:35;;;;;;;8.10;3.40;;;;;;;14.85;46.08;101050.65;111186;1211;99039;-66
2023/05/01 10:16:06;;;;;;;10.70;3.50;;;;;;;14.92;45.98;101044.52;111131;1212;138570;-66
2023/05/01 10:18:33;;;;;;;11.20;3.30;;;;;;;14.92;45.76;101045.80;111218;1211;112894;-66
2023/05/01 10:20:58;;;;;;;7.30;3.40;;;;;;;15.01;45.73;101037.74;111252;1211;99159;-65
2023/05/01 10:23:24;;;;;;;8.00;3.50;;;;;;;15.11;45.50;101037.69;111094;1211;139140;-66
2023/05/01 10:25:52;;;;;;;15.00;3.60;;;;;;;15.21;45.32;101032.84;111156;1211;98994;-66
2023/05/01 10:28:19;;;;;;;11.80;3.70;;;;;;;15.28;45.13;101026.52;111108;1206;139284;-65
2023/05/01 10:30:46;;;;;;;7.50;3.20;;;;;;;15.29;44.89;101016.37;111132;1206;99055;-66
2023/05/01 10:33:15;;;;;;;9.60;3.10;;;;;;;15.31;44.90;101012.09;111226;1211;99018;-65
2023/05/01 10:35:46;;;;;;;7.60;3.60;;;;;;;15.46;44.95;101009.42;111095;1206;139280;-67
2023/05/01 10:38:18;;;;;;;;;;;;;;;15.68;44.98;101007.58;111225;1209;99149;-65
2023/05/01 10:40:46;;;;;;;10.30;3.60;;;;;;;15.83;44.87;100998.61;111093;1206;124859;-65
2023/05/01 10:43:19;;;;;;;9.80;3.70;;;;;;;15.98;44.93;100994.85;111224;1213;99019;-65
2023/05/01 10:45:46;;;;;;;8.30;4.00;;;;;;;16.12;44.64;100990.89;111031;1212;139060;-66
2023/05/01 10:48:41;;;;;;;9.10;3.30;;;;;;;16.22;44.69;100990.10;111193;1211;99095;-65
2023/05/01 10:51:26;;;;;;;8.10;2.90;;;;;;;16.34;44.22;100993.85;111183;1211;98958;-65
2023/05/01 10:54:13;;;;;;;8.90;3.30;;;;;;;16.50;44.28;100986.94;111109;1211;138241;-65
2023/05/01 10:56:41;;;;;;;9.50;4.10;;;;;;;16.71;44.10;100984.16;111263;1211;97899;-65
2023/05/01 10:59:07;;;;;;;5.10;3.00;;;;;;;16.89;43.99;100980.87;111103;1212;138177;-65
2023/05/01 11:01:44;;;;;;;5.80;3.10;;;;;;;16.99;43.63;100981.67;111330;1206;99044;-65
2023/05/01 11:04:25;;;;;;;9.40;3.10;;;;;;;17.14;43.65;100980.10;111170;1207;140014;-66
2023/05/01 11:06:57;;;;;;;6.30;2.90;;;;;;;17.31;43.46;100975.73;111127;1211;104287;-65
2023/05/01 11:09:42;;;;;;;5.80;2.80;;;;;;;17.45;43.09;100972.30;111134;1205;100268;-66
2023/05/01 11:12:10;;;;;;;5.20;2.70;;;;;;;17.56;42.77;100973.55;111192;1206;100420;-65